Time;durP1;ratioP1;P1;durP2;ratioP2;P2;SDS_P1;SDS_P2;PMS_P1;PMS_P2;Temp;Humidity;BMP_temperature;BMP_pressure;BME280_temperature;BME280_humidity;BME280_pressure;Samples;Min_cycle;Max_cycle;Signal;HPM_P1;HPM_P2
2023/10/16 00:03:56;;;;;;;31.23;29.30;;;;;;;15.33;100.00;100656.22;5018846;28;20116;-77
2023/10/16 00:06:23;;;;;;;36.25;34.15;;;;;;;13.80;100.00;100670.66;5003097;28;20510;-76
2023/10/16 00:09:14;;;;;;;29.83;27.92;;;;;;;13.81;100.00;100675.78;5009574;28;20569;-76
2023/10/16 00:12:20;;;;;;;28.42;26.38;;;;;;;14.28;100.00;100675.06;5011912;28;20486;-76
2023/10/16 00:14:47;;;;;;;29.33;27.40;;;;;;;13.59;100.00;100680.03;4999202;28;20049;-76
2023/10/16 00:17:16;;;;;;;40.38;38.08;;;;;;;13.78;100.00;100662.09;5012004;28;20073;-75
2023/10/16 00:19:44;;;;;;;31.60;29.23;;;;;;;14.70;100.00;100659.72;5006113;28;20046;-77
2023/10/16 00:22:16;;;;;;;27.80;25.95;;;;;;;14.41;100.00;100666.81;5023454;28;20049;-76
2023/10/16 00:24:46;;;;;;;37.20;35.00;;;;;;;13.56;100.00;100672.47;5014933;28;20073;-77
2023/10/16 00:27:23;;;;;;;27.85;25.95;;;;;;;13.60;100.00;100668.31;5019681;28;20107;-76
2023/10/16 00:29:55;;;;;;;32.85;30.33;;;;;;;13.02;100.00;100664.28;5017176;28;20045;-76
2023/10/16 00:32:31;;;;;;;29.33;27.42;;;;;;;13.39;100.00;100674.94;5013774;28;20046;-76
2023/10/16 00:35:26;;;;;;;28.10;26.10;;;;;;;13.88;100.00;100687.16;5019999;28;20434;-76
2023/10/16 00:41:24;;;;;;;27.60;25.70;;;;;;;13.68;100.00;100684.00;5007515;28;20041;-77
2023/10/16 00:44:17;;;;;;;29.88;27.58;;;;;;;14.16;100.00;100667.84;5010523;28;20088;-77
2023/10/16 00:46:54;;;;;;;29.58;27.67;;;;;;;14.36;100.00;100662.16;5005841;28;20050;-77
2023/10/16 00:49:23;;;;;;;27.38;25.58;;;;;;;13.57;100.00;100682.91;5012956;28;20128;-75
2023/10/16 00:51:50;;;;;;;27.60;25.80;;;;;;;13.76;100.00;100691.66;5016506;28;20045;-76
2023/10/16 00:54:28;;;;;;;29.75;27.85;;;;;;;13.23;100.00;100703.03;5011766;28;20054;-76
2023/10/16 00:57:07;;;;;;;28.70;26.70;;;;;;;14.19;100.00;100696.78;5010999;28;20042;-77
2023/10/16 00:59:35;;;;;;;28.00;26.20;;;;;;;13.27;100.00;100704.22;5012805;28;20069;-77
2023/10/16 01:02:07;;;;;;;28.15;26.30;;;;;;;13.52;100.00;100728.97;5002132;28;20058;-77
2023/10/16 01:04:34;;;;;;;23.95;22.25;;;;;;;13.67;100.00;100717.84;5019919;28;20046;-76
2023/10/16 01:07:02;;;;;;;25.70;23.90;;;;;;;13.21;100.00;100731.75;5012128;28;20108;-77
2023/10/16 01:09:46;;;;;;;26.55;24.65;;;;;;;12.50;100.00;100722.44;5009006;28;20050;-77
2023/10/16 01:12:14;;;;;;;31.95;28.23;;;;;;;14.32;100.00;100716.31;5009787;28;20064;-77
2023/10/16 01:14:41;;;;;;;25.50;23.70;;;;;;;12.22;100.00;100718.31;5005909;28;21724;-76
2023/10/16 01:17:08;;;;;;;25.40;23.60;;;;;;;11.96;100.00;100745.97;5009147;28;20828;-77
2023/10/16 01:19:43;;;;;;;26.00;24.10;;;;;;;11.63;100.00;100754.91;5004084;28;20050;-76
2023/10/16 01:22:17;;;;;;;27.25;25.17;;;;;;;11.49;100.00;100763.16;5005519;28;20411;-76
2023/10/16 01:24:45;;;;;;;25.33;23.42;;;;;;;11.79;100.00;100776.72;5009735;28;20042;-76
2023/10/16 01:27:29;;;;;;;30.67;28.48;;;;;;;11.62;100.00;100758.59;5009297;28;20054;-76
2023/10/16 01:30:09;;;;;;;30.17;27.95;;;;;;;11.89;100.00;100761.13;5014464;28;20050;-76
2023/10/16 01:49:38;;;;;;;28.90;27.00;;;;;;;11.74;100.00;100784.53;4959035;28;20045;-77
2023/10/16 01:52:59;;;;;;;29.95;27.90;;;;;;;11.62;100.00;100805.69;4946973;29;20051;-77
2023/10/16 01:55:27;;;;;;;31.95;29.85;;;;;;;12.09;100.00;100806.28;4956106;28;20054;-76
2023/10/16 01:57:56;;;;;;;29.42;27.42;;;;;;;12.03;100.00;100809.81;4966639;28;20131;-77
2023/10/16 02:00:34;;;;;;;32.95;30.75;;;;;;;12.05;100.00;100821.88;5012388;28;20100;-77
2023/10/16 02:03:17;;;;;;;33.03;30.73;;;;;;;11.57;100.00;100822.25;5014308;28;20053;-77
2023/10/16 02:05:58;;;;;;;33.25;30.85;;;;;;;11.75;100.00;100824.22;5009375;28;20050;-77
2023/10/16 02:08:25;;;;;;;32.97;30.65;;;;;;;11.60;100.00;100826.34;5010743;28;20341;-77
2023/10/16 02:11:10;;;;;;;31.08;28.98;;;;;;;11.36;100.00;100833.16;5034486;28;20053;-77
2023/10/16 02:13:51;;;;;;;32.65;30.40;;;;;;;11.44;100.00;100847.06;4998147;28;20149;-77
2023/10/16 02:16:19;;;;;;;33.78;31.45;;;;;;;11.30;100.00;100829.47;5032542;28;20045;-76
2023/10/16 02:18:47;;;;;;;36.55;34.35;;;;;;;12.36;100.00;100830.91;5011901;28;20068;-76
2023/10/16 02:21:15;;;;;;;36.25;33.70;;;;;;;11.61;100.00;100828.78;5013547;28;20501;-75
2023/10/16 02:23:43;;;;;;;34.70;32.40;;;;;;;11.60;100.00;100813.03;5014336;28;20136;-75
2023/10/16 02:26:12;;;;;;;38.85;36.15;;;;;;;11.88;100.00;100824.19;5013334;28;20077;-76
2023/10/16 02:29:28;;;;;;;35.33;33.03;;;;;;;11.68;100.00;100832.25;5012490;28;20125;-76
2023/10/16 02:32:03;;;;;;;33.35;31.15;;;;;;;11.39;100.00;100827.41;5010071;28;20053;-76
2023/10/16 02:34:37;;;;;;;33.28;31.08;;;;;;;13.11;100.00;100835.47;5021606;28;20444;-78
2023/10/16 02:37:32;;;;;;;33.35;30.20;;;;;;;11.98;100.00;100853.06;4998921;28;20472;-77
2023/10/16 02:43:36;;;;;;;30.40;28.50;;;;;;;11.59;100.00;100838.00;5021434;28;20076;-75
2023/10/16 02:46:23;;;;;;;29.58;27.77;;;;;;;12.02;100.00;100840.13;5012307;28;20057;-76
2023/10/16 02:48:52;;;;;;;28.52;26.75;;;;;;;11.38;100.00;100841.75;5010619;28;20129;-77
2023/10/16 02:51:24;;;;;;;29.92;28.02;;;;;;;12.53;100.00;100844.53;5014730;28;20042;-78
2023/10/16 02:53:57;;;;;;;27.83;26.02;;;;;;;12.12;100.00;100851.13;5017181;28;20065;-76
2023/10/16 02:56:25;;;;;;;28.20;26.30;;;;;;;13.22;100.00;100853.38;5012567;28;20046;-76
2023/10/16 02:58:55;;;;;;;30.48;28.48;;;;;;;11.92;100.00;100869.84;5013633;28;20127;-77
2023/10/16 03:01:45;;;;;;;31.35;29.35;;;;;;;13.18;100.00;100868.22;5013191;28;20124;-77
2023/10/16 03:04:16;;;;;;;32.15;30.20;;;;;;;11.61;100.00;100866.03;5002673;28;20176;-77
2023/10/16 03:06:54;;;;;;;34.00;31.58;;;;;;;11.39;100.00;100862.81;5010256;28;20045;-77
2023/10/16 03:09:28;;;;;;;32.83;30.83;;;;;;;11.35;100.00;100861.59;5011517;28;20083;-79
2023/10/16 03:12:04;;;;;;;31.20;29.20;;;;;;;11.90;100.00;100859.41;5004863;28;20048;-77
2023/10/16 03:14:45;;;;;;;33.33;31.33;;;;;;;11.56;100.00;100868.50;5025201;28;20049;-76
2023/10/16 03:17:34;;;;;;;39.03;36.70;;;;;;;13.04;100.00;100887.00;5023467;28;20086;-77
2023/10/16 03:20:19;;;;;;;32.50;30.65;;;;;;;12.59;100.00;100887.13;5019302;28;20064;-76
2023/10/16 03:22:46;;;;;;;33.67;31.67;;;;;;;13.40;100.00;100880.13;4999609;28;20399;-77
2023/10/16 03:26:09;;;;;;;39.20;37.00;;;;;;;11.49;100.00;100881.00;5012151;28;20057;-78
2023/10/16 03:28:38;;;;;;;32.90;30.90;;;;;;;11.30;100.00;100869.38;5003219;28;20054;-77
2023/10/16 03:31:15;;;;;;;28.90;26.98;;;;;;;11.42;100.00;100890.84;5012610;28;20457;-78
2023/10/16 03:33:45;;;;;;;36.88;34.47;;;;;;;11.39;100.00;100886.75;5012569;28;20567;-77
2023/10/16 03:36:37;;;;;;;27.42;26.02;;;;;;;12.22;100.00;100886.09;5030353;28;20056;-77
2023/10/16 03:43:02;;;;;;;31.08;29.48;;;;;;;11.98;100.00;100882.31;5012939;28;20041;-76
2023/10/16 03:45:40;;;;;;;32.17;30.48;;;;;;;11.39;100.00;100892.06;5015229;28;20041;-78
2023/10/16 03:48:10;;;;;;;25.48;23.98;;;;;;;12.00;100.00;100900.75;5007284;28;20448;-76
2023/10/16 03:50:42;;;;;;;30.50;28.83;;;;;;;11.18;100.00;100887.78;5003389;28;20045;-78
2023/10/16 03:53:18;;;;;;;28.70;27.10;;;;;;;11.69;100.00;100899.56;5013045;28;20054;-77
2023/10/16 03:56:33;;;;;;;26.10;24.70;;;;;;;11.82;100.00;100910.16;5009152;28;20384;-76
2023/10/16 03:59:05;;;;;;;22.48;21.17;;;;;;;12.79;100.00;100910.16;5011643;28;20046;-78
2023/10/16 04:01:35;;;;;;;;;;;;;;;12.99;100.00;100902.03;5014682;28;20049;-74
2023/10/16 04:04:12;;;;;;;25.00;23.60;;;;;;;12.26;100.00;100911.28;5009656;28;19979;-77
2023/10/16 04:06:41;;;;;;;25.88;24.52;;;;;;;11.90;100.00;100896.69;5000804;28;20061;-77
2023/10/16 04:09:09;;;;;;;27.85;26.55;;;;;;;11.84;100.00;100921.44;5006206;28;20580;-78
2023/10/16 04:11:48;;;;;;;26.00;24.15;;;;;;;11.79;100.00;100931.88;5009876;28;20058;-77
2023/10/16 04:14:15;;;;;;;30.77;28.17;;;;;;;11.91;100.00;100930.25;5009722;28;20046;-76
2023/10/16 04:16:54;;;;;;;26.10;24.70;;;;;;;11.45;100.00;100925.00;5005526;28;20429;-76
2023/10/16 04:19:36;;;;;;;26.15;24.75;;;;;;;11.47;100.00;100938.91;5007386;28;20046;-75
2023/10/16 04:22:08;;;;;;;27.48;26.17;;;;;;;11.49;100.00;100944.00;5008696;28;20046;-77
2023/10/16 04:24:44;;;;;;;24.95;23.65;;;;;;;11.86;100.00;100923.91;5001841;28;20050;-77
2023/10/16 04:32:40;;;;;;;23.58;22.27;;;;;;;11.53;100.00;100924.78;5009885;28;20050;-76
2023/10/16 04:35:29;;;;;;;23.85;22.58;;;;;;;11.64;100.00;100939.28;5006805;28;20796;-76
2023/10/16 04:38:27;;;;;;;23.65;22.35;;;;;;;11.84;100.00;100950.72;5009970;28;20104;-75
2023/10/16 04:45:24;;;;;;;22.80;21.50;;;;;;;11.90;100.00;100949.09;4971467;28;20537;-77
2023/10/16 04:47:56;;;;;;;21.10;19.85;;;;;;;11.88;100.00;100978.56;5000731;28;20068;-78
2023/10/16 04:50:37;;;;;;;19.90;18.60;;;;;;;12.63;100.00;100975.44;5007137;28;20050;-76
2023/10/16 04:53:08;;;;;;;19.75;18.55;;;;;;;11.83;100.00;100985.50;5011113;28;20093;-77
2023/10/16 04:55:53;;;;;;;20.38;19.08;;;;;;;11.98;100.00;100979.97;5010006;28;20049;-76
2023/10/16 04:58:46;;;;;;;20.88;19.38;;;;;;;12.49;100.00;100984.50;5001583;28;20492;-75
2023/10/16 05:07:37;;;;;;;19.83;18.63;;;;;;;11.58;100.00;101022.56;5003911;28;20053;-78
2023/10/16 05:13:56;;;;;;;19.77;18.48;;;;;;;11.34;100.00;101024.81;5009713;28;20044;-77
2023/10/16 05:16:31;;;;;;;20.73;19.33;;;;;;;12.29;100.00;101028.03;5004500;28;20131;-77
2023/10/16 06:14:16;;;;;;;23.45;21.95;;;;;;;12.30;100.00;101196.66;4993834;28;20184;-76
2023/10/16 06:16:58;;;;;;;21.77;20.27;;;;;;;11.95;100.00;101207.47;5011320;28;20136;-77
2023/10/16 06:19:26;;;;;;;20.67;19.38;;;;;;;12.14;100.00;101222.66;5009624;28;20052;-77
2023/10/16 06:21:59;;;;;;;23.30;21.80;;;;;;;13.40;100.00;101226.16;5010500;28;20046;-76
2023/10/16 06:24:28;;;;;;;24.70;23.10;;;;;;;12.22;100.00;101239.44;5002870;28;20137;-75
2023/10/16 06:27:08;;;;;;;22.33;20.83;;;;;;;12.96;100.00;101243.72;5013133;28;20057;-77
2023/10/16 06:29:40;;;;;;;22.23;20.83;;;;;;;11.60;100.00;101249.34;5012657;28;20087;-76
2023/10/16 06:32:18;;;;;;;23.00;21.60;;;;;;;11.54;100.00;101256.28;5003020;28;20065;-77
2023/10/16 06:38:14;;;;;;;21.52;20.23;;;;;;;12.91;100.00;101271.00;5012712;28;20576;-76
2023/10/16 06:40:54;;;;;;;22.00;20.70;;;;;;;12.60;100.00;101275.13;5011620;28;20049;-76
2023/10/16 06:43:32;;;;;;;22.85;21.45;;;;;;;13.59;100.00;101277.81;4994453;28;20062;-78
2023/10/16 06:46:09;;;;;;;22.02;20.63;;;;;;;12.19;100.00;101283.28;5002678;28;20042;-76
2023/10/16 06:48:39;;;;;;;21.90;20.50;;;;;;;12.78;100.00;101287.81;5011535;28;20084;-76
2023/10/16 06:51:14;;;;;;;23.02;21.48;;;;;;;13.36;100.00;101292.47;5006182;28;20073;-76
2023/10/16 06:53:52;;;;;;;24.20;22.50;;;;;;;13.07;100.00;101291.06;5006382;28;20042;-75
2023/10/16 06:56:30;;;;;;;23.65;22.10;;;;;;;13.95;100.00;101285.22;5009826;28;20046;-76
2023/10/16 06:58:59;;;;;;;20.92;19.52;;;;;;;12.91;100.00;101302.97;5000622;28;20129;-75
2023/10/16 07:01:26;;;;;;;22.40;20.90;;;;;;;12.77;100.00;101306.69;5000553;28;20080;-75
2023/10/16 07:03:55;;;;;;;23.08;21.58;;;;;;;12.34;100.00;101307.06;5010495;28;20446;-76
2023/10/16 07:06:24;;;;;;;22.13;20.55;;;;;;;12.40;100.00;101319.56;5009219;28;20108;-77
2023/10/16 07:08:52;;;;;;;24.35;22.65;;;;;;;12.64;100.00;101326.16;5010499;28;20131;-76
2023/10/16 07:11:21;;;;;;;23.60;22.00;;;;;;;12.92;100.00;101325.13;5005010;28;20056;-77
2023/10/16 07:13:48;;;;;;;23.30;21.70;;;;;;;13.69;100.00;101331.56;5005730;28;20050;-76
2023/10/16 07:16:19;;;;;;;22.83;21.33;;;;;;;13.58;100.00;101329.53;5011360;28;20057;-76
2023/10/16 07:18:50;;;;;;;23.30;21.50;;;;;;;11.93;100.00;101339.16;5010375;28;20141;-76
2023/10/16 07:21:36;;;;;;;23.08;21.48;;;;;;;13.98;100.00;101335.53;5001915;28;20045;-76
2023/10/16 07:24:04;;;;;;;23.15;21.50;;;;;;;12.91;100.00;101347.50;5005727;28;20593;-77
2023/10/16 07:26:31;;;;;;;22.83;21.23;;;;;;;12.95;100.00;101346.03;4993661;28;20113;-76
2023/10/16 07:29:01;;;;;;;25.48;23.63;;;;;;;12.95;100.00;101359.38;5006786;28;20051;-76
2023/10/16 07:31:29;;;;;;;23.20;21.60;;;;;;;14.56;100.00;101358.66;5010262;28;20046;-75
2023/10/16 07:34:04;;;;;;;23.17;21.67;;;;;;;14.79;100.00;101363.41;5010408;28;20771;-75
2023/10/16 07:36:32;;;;;;;22.77;21.10;;;;;;;13.83;100.00;101380.34;5007472;28;20042;-75
2023/10/16 07:39:03;;;;;;;21.48;19.98;;;;;;;13.22;100.00;101385.03;5003540;28;20525;-77
2023/10/16 07:41:43;;;;;;;21.67;20.27;;;;;;;12.87;100.00;101386.25;5004426;28;20485;-77
2023/10/16 07:44:10;;;;;;;23.70;22.30;;;;;;;13.88;100.00;101394.72;5009824;28;20774;-76
2023/10/16 07:47:09;;;;;;;22.23;20.83;;;;;;;12.63;100.00;101385.00;5004924;28;20116;-77
2023/10/16 07:49:49;;;;;;;24.33;22.83;;;;;;;13.01;100.00;101387.88;4944448;29;20062;-76
2023/10/16 07:52:22;;;;;;;23.20;21.60;;;;;;;12.66;100.00;101392.59;4995526;28;20049;-77
2023/10/16 07:55:04;;;;;;;23.83;22.42;;;;;;;13.16;100.00;101391.19;5012295;28;20120;-77
2023/10/16 07:57:43;;;;;;;21.95;20.55;;;;;;;13.45;100.00;101387.25;5011930;28;20050;-78
2023/10/16 08:00:41;;;;;;;20.95;19.65;;;;;;;12.93;100.00;101402.25;5011416;28;20096;-77
2023/10/16 08:03:13;;;;;;;21.55;20.15;;;;;;;12.61;100.00;101401.19;5004339;28;20053;-76
2023/10/16 08:05:47;;;;;;;21.88;20.48;;;;;;;12.66;100.00;101401.41;4998491;28;20053;-77
2023/10/16 08:08:37;;;;;;;22.38;20.88;;;;;;;13.00;100.00;101399.59;5010058;28;20096;-77
2023/10/16 08:11:12;;;;;;;22.25;20.75;;;;;;;13.51;100.00;101404.28;4998818;28;20058;-76
2023/10/16 08:13:46;;;;;;;23.23;21.73;;;;;;;13.66;100.00;101415.53;4998156;28;20085;-77
2023/10/16 08:16:17;;;;;;;23.48;21.73;;;;;;;13.27;100.00;101424.44;5010303;28;20057;-77
2023/10/16 08:18:48;;;;;;;24.00;22.50;;;;;;;14.43;100.00;101423.66;5007974;28;20046;-77
2023/10/16 08:21:39;;;;;;;22.00;20.40;;;;;;;13.53;100.00;101434.25;5008840;28;20441;-76
2023/10/16 08:24:07;;;;;;;21.92;20.40;;;;;;;13.54;100.00;101437.75;5008553;28;20426;-76
2023/10/16 08:26:42;;;;;;;24.38;22.88;;;;;;;15.91;100.00;101446.34;5002643;28;20121;-76
2023/10/16 08:29:17;;;;;;;24.30;22.70;;;;;;;12.97;100.00;101446.13;5006798;28;20058;-76
2023/10/16 08:31:45;;;;;;;24.40;22.90;;;;;;;13.35;100.00;101464.25;5008710;28;20203;-76
2023/10/16 08:34:19;;;;;;;23.48;21.98;;;;;;;12.25;100.00;101468.09;5008756;28;20046;-76
2023/10/16 08:37:03;;;;;;;23.45;21.98;;;;;;;12.36;100.00;101478.19;5004070;28;20483;-76
2023/10/16 08:39:36;;;;;;;26.08;24.48;;;;;;;12.22;100.00;101479.97;5005182;28;20508;-76
2023/10/16 08:42:18;;;;;;;27.35;25.70;;;;;;;13.00;100.00;101477.72;5009076;28;20081;-76
2023/10/16 08:44:46;;;;;;;29.30;27.60;;;;;;;13.57;100.00;101477.38;5009612;28;20046;-76
2023/10/16 08:47:17;;;;;;;24.00;22.60;;;;;;;14.63;100.00;101480.53;5008739;28;20046;-77
2023/10/16 08:50:17;;;;;;;24.77;23.27;;;;;;;12.86;100.00;101484.09;4996635;28;20069;-78
2023/10/16 08:52:50;;;;;;;26.23;24.73;;;;;;;12.29;100.00;101496.81;5002273;28;20061;-77
2023/10/16 08:55:18;;;;;;;22.30;21.00;;;;;;;12.55;100.00;101500.59;5004935;28;20054;-76
2023/10/16 09:04:54;;;;;;;21.25;19.95;;;;;;;12.70;100.00;101503.91;4994570;28;20545;-78
2023/10/16 09:07:39;;;;;;;22.02;20.73;;;;;;;12.64;100.00;101503.91;5010651;28;20129;-77
2023/10/16 09:10:10;;;;;;;20.55;19.30;;;;;;;12.51;100.00;101512.66;4996512;28;20101;-76
2023/10/16 09:19:26;;;;;;;19.27;17.88;;;;;;;13.38;100.00;101509.19;4999113;28;20056;-78
2023/10/16 09:22:26;;;;;;;18.90;17.60;;;;;;;12.32;100.00;101524.91;5014730;28;20595;-77
2023/10/16 09:28:41;;;;;;;22.23;20.63;;;;;;;12.02;100.00;101540.28;5012333;28;20847;-77
2023/10/16 09:34:35;;;;;;;22.10;20.60;;;;;;;11.82;100.00;101530.28;4998759;28;20067;-77
2023/10/16 09:37:47;;;;;;;23.50;21.90;;;;;;;12.20;100.00;101534.47;5009778;28;20519;-78
2023/10/16 09:40:35;;;;;;;21.30;19.90;;;;;;;12.29;100.00;101536.75;5000306;28;20062;-77
2023/10/16 09:43:25;;;;;;;22.38;20.92;;;;;;;12.97;100.00;101539.47;5004956;28;20049;-76
2023/10/16 09:52:45;;;;;;;24.75;23.02;;;;;;;16.40;100.00;101520.41;5009439;28;20044;-77
2023/10/16 09:55:58;;;;;;;25.33;23.73;;;;;;;15.99;100.00;101521.06;5014296;28;20049;-77
2023/10/16 09:58:30;;;;;;;24.38;22.67;;;;;;;15.97;100.00;101525.84;5000147;28;20119;-76
2023/10/16 10:01:16;;;;;;;;;;;;;;;16.32;100.00;101525.25;5014270;28;20054;-79
2023/10/16 10:04:24;;;;;;;21.55;20.15;;;;;;;17.84;100.00;101511.47;5008033;28;20408;-77
2023/10/16 10:07:19;;;;;;;24.70;23.10;;;;;;;17.27;100.00;101498.56;5014127;28;20100;-77
2023/10/16 10:09:53;;;;;;;24.40;22.80;;;;;;;17.73;100.00;101498.81;5000239;28;20125;-76
2023/10/16 10:12:47;;;;;;;23.55;22.05;;;;;;;17.32;100.00;101492.50;5006299;28;20054;-77
2023/10/16 10:15:26;;;;;;;24.27;22.67;;;;;;;18.59;100.00;101499.84;5001079;28;20104;-76
2023/10/16 10:18:17;;;;;;;22.95;21.35;;;;;;;18.27;100.00;101494.91;5006874;28;20048;-76
2023/10/16 10:20:44;;;;;;;23.40;21.80;;;;;;;18.61;100.00;101503.09;5020898;28;20049;-76
2023/10/16 10:23:20;;;;;;;25.33;23.63;;;;;;;18.98;100.00;101508.91;5013661;28;20052;-77
2023/10/16 10:29:25;;;;;;;26.60;24.80;;;;;;;19.93;100.00;101502.84;5010932;28;20465;-76
2023/10/16 10:31:52;;;;;;;25.80;24.10;;;;;;;19.09;100.00;101501.84;5009984;28;20050;-77
2023/10/16 10:34:24;;;;;;;24.35;22.65;;;;;;;20.23;100.00;101494.34;5023989;28;20433;-76
2023/10/16 10:36:51;;;;;;;23.85;22.15;;;;;;;20.88;100.00;101495.31;5019869;28;20046;-79
2023/10/16 10:39:48;;;;;;;24.98;23.27;;;;;;;19.86;100.00;101498.44;5030148;28;20049;-75
2023/10/16 10:42:41;;;;;;;24.85;23.15;;;;;;;21.16;100.00;101484.22;5003660;28;20050;-77
2023/10/16 10:45:20;;;;;;;24.38;22.77;;;;;;;20.11;100.00;101487.19;5005192;28;20046;-76
2023/10/16 10:47:47;;;;;;;26.27;24.42;;;;;;;19.38;100.00;101485.59;5006762;28;20077;-77
2023/10/16 10:50:38;;;;;;;23.45;21.85;;;;;;;20.26;100.00;101491.13;5007013;28;20046;-77
2023/10/16 10:53:14;;;;;;;23.98;22.38;;;;;;;20.75;100.00;101489.25;5011576;28;20092;-77
2023/10/16 10:56:20;;;;;;;22.60;21.00;;;;;;;21.77;91.71;101480.34;5027513;28;20477;-77
2023/10/16 10:59:30;;;;;;;24.10;22.40;;;;;;;21.95;84.33;101482.59;5010104;28;20065;-77
2023/10/16 11:02:09;;;;;;;23.88;22.27;;;;;;;21.99;90.82;101485.56;5016258;28;20445;-76
2023/10/16 11:04:47;;;;;;;23.00;21.40;;;;;;;20.64;99.21;101492.13;5024729;28;20045;-76
2023/10/16 11:07:45;;;;;;;24.88;23.08;;;;;;;21.85;96.58;101482.56;5004106;28;20058;-77
2023/10/16 11:10:14;;;;;;;25.00;23.10;;;;;;;22.26;89.35;101480.03;5006004;28;20051;-76
2023/10/16 11:12:47;;;;;;;24.00;22.30;;;;;;;22.09;76.51;101485.63;5010414;28;20048;-75
2023/10/16 11:15:18;;;;;;;25.83;24.02;;;;;;;22.41;81.17;101482.78;5006662;28;20046;-76
2023/10/16 11:17:46;;;;;;;23.75;22.05;;;;;;;23.37;70.76;101480.44;5018814;28;20148;-76
2023/10/16 11:20:27;;;;;;;23.50;21.90;;;;;;;23.27;70.50;101487.50;5012655;28;20050;-77
2023/10/16 11:23:13;;;;;;;24.27;22.50;;;;;;;23.55;75.36;101486.09;5009829;28;20066;-77
2023/10/16 11:25:44;;;;;;;25.65;23.85;;;;;;;24.21;65.13;101484.28;5008412;28;20050;-77
2023/10/16 11:28:21;;;;;;;25.13;23.42;;;;;;;23.87;58.73;101478.72;5012661;28;20050;-76
2023/10/16 11:30:53;;;;;;;24.10;22.40;;;;;;;19.78;95.40;101489.97;5011265;28;20076;-77
2023/10/16 11:33:43;;;;;;;23.10;21.50;;;;;;;23.32;77.56;101475.84;5011610;28;20399;-79
2023/10/16 11:36:13;;;;;;;24.88;23.17;;;;;;;20.29;73.31;101479.84;5020396;28;20463;-77
2023/10/16 11:38:47;;;;;;;27.13;25.63;;;;;;;21.69;72.75;101476.22;5017193;28;20421;-77
2023/10/16 11:41:26;;;;;;;24.42;22.83;;;;;;;21.16;79.42;101483.41;5000546;28;20536;-77
2023/10/16 11:43:54;;;;;;;24.42;22.73;;;;;;;20.17;79.85;101481.84;5011123;28;20054;-77
2023/10/16 11:46:29;;;;;;;23.33;21.63;;;;;;;21.41;71.18;101477.41;5006471;28;20094;-77
2023/10/16 11:49:17;;;;;;;24.63;22.92;;;;;;;20.52;74.71;101486.88;5012108;28;20058;-78
2023/10/16 11:51:46;;;;;;;25.67;24.08;;;;;;;21.14;87.85;101488.25;5003393;28;20065;-76
2023/10/16 11:54:21;;;;;;;26.15;24.35;;;;;;;20.78;59.34;101488.75;5011152;28;20054;-78
2023/10/16 11:56:50;;;;;;;26.25;24.55;;;;;;;22.24;69.30;101472.19;5011565;28;20457;-77
2023/10/16 11:59:32;;;;;;;25.90;24.10;;;;;;;23.96;53.99;101480.59;5010258;28;20049;-76
2023/10/16 12:02:01;;;;;;;25.98;24.27;;;;;;;24.84;53.04;101480.94;5011324;28;20136;-78
2023/10/16 12:04:42;;;;;;;25.95;24.15;;;;;;;23.26;48.01;101480.44;5008465;28;20105;-76
2023/10/16 12:07:27;;;;;;;25.30;23.50;;;;;;;21.24;69.69;101485.63;5010705;28;20415;-77
2023/10/16 12:09:54;;;;;;;23.33;21.83;;;;;;;23.19;60.44;101479.13;5001859;28;20057;-77
2023/10/16 12:12:24;;;;;;;24.40;22.70;;;;;;;21.73;58.82;101482.75;5009067;28;20058;-77
2023/10/16 12:14:59;;;;;;;24.75;22.95;;;;;;;23.76;56.53;101476.06;5009095;28;20081;-76
2023/10/16 12:17:28;;;;;;;24.63;22.92;;;;;;;23.71;53.27;101481.47;4994446;28;20685;-75
2023/10/16 12:19:57;;;;;;;24.13;22.52;;;;;;;22.88;48.60;101481.00;5007606;28;20081;-76
2023/10/16 12:22:24;;;;;;;27.70;26.00;;;;;;;21.59;57.21;101479.69;5006333;28;20494;-77
2023/10/16 12:24:51;;;;;;;26.17;24.58;;;;;;;22.84;66.02;101478.81;5005791;28;20060;-75
2023/10/16 12:27:21;;;;;;;25.05;23.45;;;;;;;23.59;55.62;101475.53;5009203;28;20064;-76
2023/10/16 12:29:47;;;;;;;24.48;22.77;;;;;;;24.54;51.86;101474.63;5009090;28;20064;-76
2023/10/16 12:32:14;;;;;;;26.85;25.05;;;;;;;25.01;46.42;101480.53;5007576;28;20109;-76
2023/10/16 12:34:42;;;;;;;27.58;25.88;;;;;;;22.73;56.42;101487.19;5008639;28;20408;-76
2023/10/16 12:37:11;;;;;;;27.40;25.80;;;;;;;22.11;55.12;101483.47;5009726;28;20586;-76
2023/10/16 12:39:47;;;;;;;28.38;26.77;;;;;;;23.61;47.24;101478.78;5009841;28;20049;-76
2023/10/16 12:42:14;;;;;;;28.40;26.70;;;;;;;19.61;59.48;101481.91;5007010;28;20088;-76
2023/10/16 12:44:51;;;;;;;26.95;25.35;;;;;;;21.45;65.12;101482.06;4995039;28;20108;-76
2023/10/16 12:47:17;;;;;;;24.88;23.27;;;;;;;18.98;83.49;101492.75;4997721;28;20054;-77
2023/10/16 12:49:44;;;;;;;29.40;27.70;;;;;;;21.95;74.89;101479.88;5008039;28;20429;-76
2023/10/16 12:52:12;;;;;;;29.52;27.83;;;;;;;22.55;59.97;101470.38;5008087;28;20054;-76
2023/10/16 12:54:43;;;;;;;27.40;25.80;;;;;;;22.47;54.51;101470.09;5009914;28;20469;-76
2023/10/16 12:57:10;;;;;;;28.92;27.13;;;;;;;21.22;55.86;101469.69;5008669;28;20061;-76
2023/10/16 12:59:37;;;;;;;31.30;29.15;;;;;;;19.84;76.29;101473.63;5002367;28;20100;-76
2023/10/16 13:02:04;;;;;;;29.45;27.75;;;;;;;19.51;78.65;101476.34;5008877;28;20453;-76
2023/10/16 13:04:33;;;;;;;29.38;27.67;;;;;;;22.10;49.93;101471.84;5005003;28;20048;-77
2023/10/16 13:07:01;;;;;;;28.42;26.73;;;;;;;23.42;48.30;101470.41;5001989;28;20060;-76
2023/10/16 13:09:35;;;;;;;25.83;24.20;;;;;;;20.73;54.81;101477.13;5010356;28;20050;-76
2023/10/16 13:12:08;;;;;;;27.08;25.40;;;;;;;21.52;55.04;101479.13;5006224;28;20046;-76
2023/10/16 13:14:40;;;;;;;;;;;;;;;18.56;67.33;101484.16;5003768;28;20506;-76
2023/10/16 13:17:08;;;;;;;28.55;26.85;;;;;;;22.46;50.94;101471.16;4991019;28;19922;-76
2023/10/16 13:19:35;;;;;;;24.60;22.90;;;;;;;20.80;50.82;101483.91;5009427;28;20108;-75
2023/10/16 13:22:10;;;;;;;24.80;23.27;;;;;;;21.43;48.41;101467.16;5004733;28;20587;-76
2023/10/16 13:24:41;;;;;;;26.80;25.20;;;;;;;20.76;49.72;101480.09;5009857;28;20087;-75
2023/10/16 13:27:07;;;;;;;30.27;28.58;;;;;;;21.44;48.90;101474.19;5009732;28;20053;-76
2023/10/16 13:29:37;;;;;;;29.85;28.25;;;;;;;22.70;43.88;101463.38;4990565;28;20053;-76
2023/10/16 13:32:08;;;;;;;32.03;30.42;;;;;;;22.95;45.50;101473.44;5009296;28;20053;-76
2023/10/16 13:34:36;;;;;;;30.73;29.02;;;;;;;20.51;54.36;101477.09;5009673;28;20520;-77
2023/10/16 13:37:19;;;;;;;29.13;27.52;;;;;;;22.06;46.56;101465.34;5008242;28;20053;-76
2023/10/16 13:39:47;;;;;;;25.63;24.17;;;;;;;21.08;45.55;101479.28;5009445;28;20049;-76
2023/10/16 13:42:15;;;;;;;26.02;24.52;;;;;;;22.40;43.63;101465.75;5002735;28;20138;-75
2023/10/16 13:44:42;;;;;;;26.13;24.63;;;;;;;21.08;43.30;101468.50;5008809;28;20131;-76
2023/10/16 13:47:10;;;;;;;25.40;23.90;;;;;;;21.20;49.18;101474.53;5009799;28;20061;-77
2023/10/16 13:49:47;;;;;;;25.80;24.30;;;;;;;20.07;50.24;101479.84;5009762;28;20050;-75
2023/10/16 13:52:15;;;;;;;25.40;23.80;;;;;;;20.44;53.63;101480.00;5009534;28;20482;-76
2023/10/16 13:54:42;;;;;;;24.75;23.27;;;;;;;21.35;49.66;101478.41;5004845;28;20054;-75
2023/10/16 13:57:10;;;;;;;23.00;21.40;;;;;;;21.54;48.98;101481.53;5012869;28;20061;-76
2023/10/16 13:59:39;;;;;;;24.88;23.38;;;;;;;21.82;44.82;101469.56;5012853;28;20461;-76
2023/10/16 14:02:06;;;;;;;27.50;25.90;;;;;;;21.12;45.87;101476.88;5011501;28;20065;-76
2023/10/16 14:04:33;;;;;;;28.75;27.15;;;;;;;20.92;49.73;101480.25;5013448;28;20053;-76